sensor_id;sensor_type;location;lat;lon;timestamp;temperature;humidity
70076;DHT22;63241;51.056;3.698;2022-12-18T00:01:26;-2.30;99.90
70076;DHT22;63241;51.056;3.698;2022-12-18T00:10:11;-2.30;99.90
70076;DHT22;63241;51.056;3.698;2022-12-18T00:12:39;-2.40;99.90
70076;DHT22;63241;51.056;3.698;2022-12-18T00:15:07;-2.40;99.90
70076;DHT22;63241;51.056;3.698;2022-12-18T00:23:57;-2.40;99.90
70076;DHT22;63241;51.056;3.698;2022-12-18T00:26:27;-2.40;99.90
70076;DHT22;63241;51.056;3.698;2022-12-18T00:29:00;-2.50;99.90
70076;DHT22;63241;51.056;3.698;2022-12-18T00:34:55;-2.40;99.90
70076;DHT22;63241;51.056;3.698;2022-12-18T00:37:23;-2.40;99.90
70076;DHT22;63241;51.056;3.698;2022-12-18T00:39:51;-2.50;99.90
70076;DHT22;63241;51.056;3.698;2022-12-18T00:42:18;-2.60;99.90
70076;DHT22;63241;51.056;3.698;2022-12-18T00:50:48;-2.80;99.90
70076;DHT22;63241;51.056;3.698;2022-12-18T00:53:16;-2.80;99.90
70076;DHT22;63241;51.056;3.698;2022-12-18T00:55:45;-2.80;99.90
70076;DHT22;63241;51.056;3.698;2022-12-18T00:58:35;-2.80;99.90
70076;DHT22;63241;51.056;3.698;2022-12-18T01:01:21;-2.90;99.90
70076;DHT22;63241;51.056;3.698;2022-12-18T01:03:49;-2.90;99.90
70076;DHT22;63241;51.056;3.698;2022-12-18T01:06:17;-2.90;99.90
70076;DHT22;63241;51.056;3.698;2022-12-18T01:08:45;-3.00;99.90
70076;DHT22;63241;51.056;3.698;2022-12-18T01:16:44;-2.90;99.90
70076;DHT22;63241;51.056;3.698;2022-12-18T01:19:12;-2.90;99.90
70076;DHT22;63241;51.056;3.698;2022-12-18T01:21:40;-2.80;99.90
70076;DHT22;63241;51.056;3.698;2022-12-18T01:28:13;-2.80;99.90
70076;DHT22;63241;51.056;3.698;2022-12-18T01:30:41;-2.90;99.90
70076;DHT22;63241;51.056;3.698;2022-12-18T01:33:09;-2.90;99.90
70076;DHT22;63241;51.056;3.698;2022-12-18T01:35:43;-2.90;99.90
70076;DHT22;63241;51.056;3.698;2022-12-18T01:38:24;-3.00;99.90
70076;DHT22;63241;51.056;3.698;2022-12-18T01:41:12;-2.90;99.90
70076;DHT22;63241;51.056;3.698;2022-12-18T01:43:53;-2.90;99.90
70076;DHT22;63241;51.056;3.698;2022-12-18T01:46:18;-2.90;99.90
70076;DHT22;63241;51.056;3.698;2022-12-18T01:48:49;-2.90;99.90
70076;DHT22;63241;51.056;3.698;2022-12-18T01:51:40;-3.00;99.90
70076;DHT22;63241;51.056;3.698;2022-12-18T01:54:32;-3.00;99.90
70076;DHT22;63241;51.056;3.698;2022-12-18T02:00:09;-3.10;99.90
70076;DHT22;63241;51.056;3.698;2022-12-18T02:02:33;-3.10;99.90
70076;DHT22;63241;51.056;3.698;2022-12-18T02:05:40;-3.10;99.90
70076;DHT22;63241;51.056;3.698;2022-12-18T02:12:07;-3.10;99.90
70076;DHT22;63241;51.056;3.698;2022-12-18T02:15:00;-3.20;99.90
70076;DHT22;63241;51.056;3.698;2022-12-18T02:17:37;-3.20;99.90
70076;DHT22;63241;51.056;3.698;2022-12-18T02:27:11;-3.40;99.90
70076;DHT22;63241;51.056;3.698;2022-12-18T02:29:53;-3.40;99.90
70076;DHT22;63241;51.056;3.698;2022-12-18T02:32:34;-3.40;99.90
70076;DHT22;63241;51.056;3.698;2022-12-18T02:35:27;-3.30;99.90
70076;DHT22;63241;51.056;3.698;2022-12-18T02:37:56;-3.30;99.90
70076;DHT22;63241;51.056;3.698;2022-12-18T02:40:26;-3.40;99.90
70076;DHT22;63241;51.056;3.698;2022-12-18T12:05:58;1.50;93.80
70076;DHT22;63241;51.056;3.698;2022-12-18T17:20:03;1.60;99.90
70076;DHT22;63241;51.056;3.698;2022-12-18T18:38:59;1.50;99.90
70076;DHT22;63241;51.056;3.698;2022-12-18T18:45:31;1.70;99.90
70076;DHT22;63241;51.056;3.698;2022-12-18T18:47:59;1.60;99.90
70076;DHT22;63241;51.056;3.698;2022-12-18T18:50:27;1.70;99.90
70076;DHT22;63241;51.056;3.698;2022-12-18T18:52:55;1.70;99.90
70076;DHT22;63241;51.056;3.698;2022-12-18T18:59:27;1.70;99.90
70076;DHT22;63241;51.056;3.698;2022-12-18T19:01:55;1.70;99.90
70076;DHT22;63241;51.056;3.698;2022-12-18T19:04:23;1.60;99.90
70076;DHT22;63241;51.056;3.698;2022-12-18T19:06:50;1.70;99.90
70076;DHT22;63241;51.056;3.698;2022-12-18T19:13:19;1.80;99.90
70076;DHT22;63241;51.056;3.698;2022-12-18T19:15:48;1.80;99.90
70076;DHT22;63241;51.056;3.698;2022-12-18T19:18:15;1.80;99.90
70076;DHT22;63241;51.056;3.698;2022-12-18T19:20:43;1.80;99.90
70076;DHT22;63241;51.056;3.698;2022-12-18T19:23:32;1.80;99.90
70076;DHT22;63241;51.056;3.698;2022-12-18T19:28:58;1.90;99.90
70076;DHT22;63241;51.056;3.698;2022-12-18T19:31:23;1.90;99.90
70076;DHT22;63241;51.056;3.698;2022-12-18T19:33:51;1.90;99.90
70076;DHT22;63241;51.056;3.698;2022-12-18T19:40:01;2.00;99.90
70076;DHT22;63241;51.056;3.698;2022-12-18T19:42:28;2.00;99.90
70076;DHT22;63241;51.056;3.698;2022-12-18T19:44:56;1.90;99.90
70076;DHT22;63241;51.056;3.698;2022-12-18T19:47:24;1.90;99.90
70076;DHT22;63241;51.056;3.698;2022-12-18T19:53:26;2.00;99.90
70076;DHT22;63241;51.056;3.698;2022-12-18T19:55:54;2.00;99.90
70076;DHT22;63241;51.056;3.698;2022-12-18T19:58:22;2.00;99.90
70076;DHT22;63241;51.056;3.698;2022-12-18T20:00:49;2.00;99.90
70076;DHT22;63241;51.056;3.698;2022-12-18T20:03:24;2.10;99.90
70076;DHT22;63241;51.056;3.698;2022-12-18T20:06:24;2.10;99.90
70076;DHT22;63241;51.056;3.698;2022-12-18T20:08:53;2.20;99.90
70076;DHT22;63241;51.056;3.698;2022-12-18T20:11:21;2.20;99.90
70076;DHT22;63241;51.056;3.698;2022-12-18T20:13:48;2.30;99.90
70076;DHT22;63241;51.056;3.698;2022-12-18T20:16:16;2.40;99.90
70076;DHT22;63241;51.056;3.698;2022-12-18T20:22:25;2.40;99.90
70076;DHT22;63241;51.056;3.698;2022-12-18T20:24:52;2.30;99.90
70076;DHT22;63241;51.056;3.698;2022-12-18T20:27:20;2.40;99.90
70076;DHT22;63241;51.056;3.698;2022-12-18T20:29:48;2.40;99.90
70076;DHT22;63241;51.056;3.698;2022-12-18T20:32:48;2.40;99.90
70076;DHT22;63241;51.056;3.698;2022-12-18T20:35:39;2.50;99.90
70076;DHT22;63241;51.056;3.698;2022-12-18T20:38:06;2.50;99.90
70076;DHT22;63241;51.056;3.698;2022-12-18T20:40:34;2.50;99.90
70076;DHT22;63241;51.056;3.698;2022-12-18T20:43:02;2.50;99.90
70076;DHT22;63241;51.056;3.698;2022-12-18T20:49:25;2.60;99.90
70076;DHT22;63241;51.056;3.698;2022-12-18T20:51:55;2.60;99.90
70076;DHT22;63241;51.056;3.698;2022-12-18T20:54:25;2.70;99.90
70076;DHT22;63241;51.056;3.698;2022-12-18T20:56:54;2.70;99.90
70076;DHT22;63241;51.056;3.698;2022-12-18T20:59:51;2.70;99.90
70076;DHT22;63241;51.056;3.698;2022-12-18T21:02:46;2.80;99.90
70076;DHT22;63241;51.056;3.698;2022-12-18T21:05:14;2.80;99.90
70076;DHT22;63241;51.056;3.698;2022-12-18T21:07:42;2.70;99.90
70076;DHT22;63241;51.056;3.698;2022-12-18T21:10:09;2.80;99.90
70076;DHT22;63241;51.056;3.698;2022-12-18T21:13:06;2.80;99.90
70076;DHT22;63241;51.056;3.698;2022-12-18T21:15:45;2.80;99.90
70076;DHT22;63241;51.056;3.698;2022-12-18T21:18:13;2.70;99.90
70076;DHT22;63241;51.056;3.698;2022-12-18T21:20:41;2.80;99.90
70076;DHT22;63241;51.056;3.698;2022-12-18T21:23:10;2.80;99.90
70076;DHT22;63241;51.056;3.698;2022-12-18T21:29:35;2.80;99.90
70076;DHT22;63241;51.056;3.698;2022-12-18T21:32:04;2.80;99.90
